sensor_id;sensor_type;location;lat;lon;timestamp;temperature;humidity
69731;SHT31;56996;48.138;11.538;2023-04-02T00:04:02;9.02;65.16
69731;SHT31;56996;48.138;11.538;2023-04-02T00:06:34;8.98;65.20
69731;SHT31;56996;48.138;11.538;2023-04-02T00:11:42;8.95;65.37
69731;SHT31;56996;48.138;11.538;2023-04-02T00:14:26;8.92;65.47
69731;SHT31;56996;48.138;11.538;2023-04-02T00:16:56;8.88;65.54
69731;SHT31;56996;48.138;11.538;2023-04-02T00:22:33;8.82;65.70
69731;SHT31;56996;48.138;11.538;2023-04-02T00:25:00;8.78;65.75
69731;SHT31;56996;48.138;11.538;2023-04-02T00:27:35;8.73;65.91
69731;SHT31;56996;48.138;11.538;2023-04-02T00:30:01;8.69;65.98
69731;SHT31;56996;48.138;11.538;2023-04-02T00:32:32;8.68;66.00
69731;SHT31;56996;48.138;11.538;2023-04-02T00:35:01;8.65;66.03
69731;SHT31;56996;48.138;11.538;2023-04-02T00:37:27;8.64;66.06
69731;SHT31;56996;48.138;11.538;2023-04-02T00:40:18;8.60;66.18
69731;SHT31;56996;48.138;11.538;2023-04-02T00:42:49;8.57;66.25
69731;SHT31;56996;48.138;11.538;2023-04-02T00:47:55;8.53;66.30
69731;SHT31;56996;48.138;11.538;2023-04-02T00:50:34;8.53;66.36
69731;SHT31;56996;48.138;11.538;2023-04-02T00:53:08;8.53;66.37
69731;SHT31;56996;48.138;11.538;2023-04-02T00:55:51;8.53;66.40
69731;SHT31;56996;48.138;11.538;2023-04-02T00:58:22;8.55;66.40
69731;SHT31;56996;48.138;11.538;2023-04-02T01:00:53;8.55;66.39
69731;SHT31;56996;48.138;11.538;2023-04-02T01:06:00;8.56;66.29
69731;SHT31;56996;48.138;11.538;2023-04-02T01:16:59;8.59;66.30
69731;SHT31;56996;48.138;11.538;2023-04-02T01:23:21;8.61;66.43
69731;SHT31;56996;48.138;11.538;2023-04-02T01:26:13;8.61;66.40
69731;SHT31;56996;48.138;11.538;2023-04-02T01:29:08;8.64;66.38
69731;SHT31;56996;48.138;11.538;2023-04-02T01:32:04;8.63;66.36
69731;SHT31;56996;48.138;11.538;2023-04-02T01:34:37;8.64;66.32
69731;SHT31;56996;48.138;11.538;2023-04-02T01:37:09;8.64;66.35
69731;SHT31;56996;48.138;11.538;2023-04-02T01:45:27;8.65;66.45
69731;SHT31;56996;48.138;11.538;2023-04-02T01:47:54;8.64;66.40
69731;SHT31;56996;48.138;11.538;2023-04-02T01:50:28;8.65;66.41
69731;SHT31;56996;48.138;11.538;2023-04-02T01:53:03;8.64;66.41
69731;SHT31;56996;48.138;11.538;2023-04-02T01:55:43;8.63;66.48
69731;SHT31;56996;48.138;11.538;2023-04-02T01:58:22;8.63;66.55
69731;SHT31;56996;48.138;11.538;2023-04-02T02:01:02;8.64;66.50
69731;SHT31;56996;48.138;11.538;2023-04-02T02:03:33;8.64;66.52
69731;SHT31;56996;48.138;11.538;2023-04-02T02:06:01;8.62;66.64
69731;SHT31;56996;48.138;11.538;2023-04-02T02:10:57;8.61;66.64
69731;SHT31;56996;48.138;11.538;2023-04-02T02:13:23;8.63;66.68
69731;SHT31;56996;48.138;11.538;2023-04-02T02:15:50;8.64;66.70
69731;SHT31;56996;48.138;11.538;2023-04-02T02:18:20;8.65;66.63
69731;SHT31;56996;48.138;11.538;2023-04-02T02:20:52;8.66;66.61
69731;SHT31;56996;48.138;11.538;2023-04-02T02:23:19;8.63;66.66
69731;SHT31;56996;48.138;11.538;2023-04-02T02:25:46;8.65;66.59
69731;SHT31;56996;48.138;11.538;2023-04-02T02:28:16;8.64;66.71
69731;SHT31;56996;48.138;11.538;2023-04-02T02:30:54;8.65;66.57
69731;SHT31;56996;48.138;11.538;2023-04-02T02:33:45;8.65;66.58
69731;SHT31;56996;48.138;11.538;2023-04-02T02:36:27;8.66;66.56
69731;SHT31;56996;48.138;11.538;2023-04-02T02:44:57;8.64;66.54
69731;SHT31;56996;48.138;11.538;2023-04-02T02:47:27;8.61;66.57
69731;SHT31;56996;48.138;11.538;2023-04-02T02:50:10;8.59;66.60
69731;SHT31;56996;48.138;11.538;2023-04-02T02:52:45;8.58;66.60
69731;SHT31;56996;48.138;11.538;2023-04-02T02:55:17;8.59;66.66
69731;SHT31;56996;48.138;11.538;2023-04-02T02:57:54;8.60;66.59
69731;SHT31;56996;48.138;11.538;2023-04-02T03:00:25;8.59;66.55
69731;SHT31;56996;48.138;11.538;2023-04-02T03:02:52;8.59;66.45
69731;SHT31;56996;48.138;11.538;2023-04-02T03:05:21;8.59;66.47
69731;SHT31;56996;48.138;11.538;2023-04-02T03:07:54;8.60;66.47
69731;SHT31;56996;48.138;11.538;2023-04-02T03:10:28;8.61;66.46
69731;SHT31;56996;48.138;11.538;2023-04-02T03:13:17;8.57;66.52
69731;SHT31;56996;48.138;11.538;2023-04-02T03:15:55;8.58;66.55
69731;SHT31;56996;48.138;11.538;2023-04-02T03:21:35;8.62;66.46
69731;SHT31;56996;48.138;11.538;2023-04-02T03:24:15;8.63;66.37
69731;SHT31;56996;48.138;11.538;2023-04-02T03:26:57;8.63;66.35
69731;SHT31;56996;48.138;11.538;2023-04-02T03:29:36;8.64;66.31
69731;SHT31;56996;48.138;11.538;2023-04-02T03:32:15;8.64;66.35
69731;SHT31;56996;48.138;11.538;2023-04-02T03:34:51;8.65;66.31
69731;SHT31;56996;48.138;11.538;2023-04-02T03:37:25;8.64;66.32
69731;SHT31;56996;48.138;11.538;2023-04-02T03:40:00;8.65;66.30
69731;SHT31;56996;48.138;11.538;2023-04-02T03:45:44;8.61;66.34
69731;SHT31;56996;48.138;11.538;2023-04-02T03:51:16;8.62;66.31
69731;SHT31;56996;48.138;11.538;2023-04-02T03:54:12;8.59;66.42
69731;SHT31;56996;48.138;11.538;2023-04-02T03:56:41;8.57;66.41
69731;SHT31;56996;48.138;11.538;2023-04-02T04:02:33;8.59;66.40
69731;SHT31;56996;48.138;11.538;2023-04-02T04:05:06;8.58;66.36
69731;SHT31;56996;48.138;11.538;2023-04-02T04:07:46;8.55;66.44
69731;SHT31;56996;48.138;11.538;2023-04-02T04:10:16;8.56;66.48
69731;SHT31;56996;48.138;11.538;2023-04-02T04:12:50;8.57;66.45
69731;SHT31;56996;48.138;11.538;2023-04-02T04:17:52;8.55;66.43
69731;SHT31;56996;48.138;11.538;2023-04-02T04:20:34;8.53;66.49
69731;SHT31;56996;48.138;11.538;2023-04-02T04:23:25;8.52;66.50
69731;SHT31;56996;48.138;11.538;2023-04-02T04:26:00;8.52;66.51
69731;SHT31;56996;48.138;11.538;2023-04-02T04:28:41;8.54;66.50
69731;SHT31;56996;48.138;11.538;2023-04-02T04:31:26;8.55;66.48
69731;SHT31;56996;48.138;11.538;2023-04-02T04:34:04;8.53;66.42
69731;SHT31;56996;48.138;11.538;2023-04-02T04:36:40;8.49;66.52
69731;SHT31;56996;48.138;11.538;2023-04-02T04:39:22;8.45;66.60
69731;SHT31;56996;48.138;11.538;2023-04-02T04:42:08;8.43;66.72
69731;SHT31;56996;48.138;11.538;2023-04-02T04:44:45;8.42;66.72
69731;SHT31;56996;48.138;11.538;2023-04-02T04:47:34;8.44;66.68
69731;SHT31;56996;48.138;11.538;2023-04-02T04:50:15;8.43;66.77
69731;SHT31;56996;48.138;11.538;2023-04-02T04:52:45;8.40;66.90
69731;SHT31;56996;48.138;11.538;2023-04-02T04:55:21;8.38;66.90
69731;SHT31;56996;48.138;11.538;2023-04-02T04:57:55;8.38;66.93
69731;SHT31;56996;48.138;11.538;2023-04-02T05:00:43;8.39;66.90
69731;SHT31;56996;48.138;11.538;2023-04-02T05:20:50;8.39;66.98
69731;SHT31;56996;48.138;11.538;2023-04-02T05:26:29;8.40;66.97
69731;SHT31;56996;48.138;11.538;2023-04-02T05:29:08;8.37;67.12
69731;SHT31;56996;48.138;11.538;2023-04-02T05:31:43;8.36;67.12
69731;SHT31;56996;48.138;11.538;2023-04-02T05:34:27;8.39;67.10
69731;SHT31;56996;48.138;11.538;2023-04-02T05:36:58;8.41;67.10
69731;SHT31;56996;48.138;11.538;2023-04-02T05:39:24;8.43;67.00
69731;SHT31;56996;48.138;11.538;2023-04-02T05:42:02;8.45;67.00
69731;SHT31;56996;48.138;11.538;2023-04-02T05:47:56;8.47;66.83
69731;SHT31;56996;48.138;11.538;2023-04-02T05:50:36;8.45;66.96
69731;SHT31;56996;48.138;11.538;2023-04-02T05:53:23;8.42;67.02
69731;SHT31;56996;48.138;11.538;2023-04-02T05:56:00;8.44;66.96
69731;SHT31;56996;48.138;11.538;2023-04-02T05:58:37;8.47;66.80
69731;SHT31;56996;48.138;11.538;2023-04-02T06:01:58;8.49;66.76
69731;SHT31;56996;48.138;11.538;2023-04-02T06:05:15;8.51;66.70
69731;SHT31;56996;48.138;11.538;2023-04-02T06:08:14;8.53;66.70
69731;SHT31;56996;48.138;11.538;2023-04-02T06:10:44;8.58;66.65
69731;SHT31;56996;48.138;11.538;2023-04-02T06:13:21;8.63;66.51
69731;SHT31;56996;48.138;11.538;2023-04-02T06:15:47;8.64;66.51
69731;SHT31;56996;48.138;11.538;2023-04-02T06:18:23;8.65;66.45
69731;SHT31;56996;48.138;11.538;2023-04-02T06:20:52;8.65;66.48
69731;SHT31;56996;48.138;11.538;2023-04-02T06:23:26;8.66;66.48
69731;SHT31;56996;48.138;11.538;2023-04-02T06:29:03;8.72;66.40
69731;SHT31;56996;48.138;11.538;2023-04-02T06:34:40;8.73;66.35
69731;SHT31;56996;48.138;11.538;2023-04-02T06:37:23;8.71;66.37
69731;SHT31;56996;48.138;11.538;2023-04-02T06:40:24;8.75;66.40
69731;SHT31;56996;48.138;11.538;2023-04-02T06:46:32;8.85;66.19
69731;SHT31;56996;48.138;11.538;2023-04-02T06:49:13;8.88;66.14
69731;SHT31;56996;48.138;11.538;2023-04-02T06:51:47;8.86;66.19
69731;SHT31;56996;48.138;11.538;2023-04-02T06:54:16;8.90;66.14
69731;SHT31;56996;48.138;11.538;2023-04-02T06:56:47;8.93;66.13
69731;SHT31;56996;48.138;11.538;2023-04-02T06:59:25;9.00;66.04
69731;SHT31;56996;48.138;11.538;2023-04-02T07:02:03;9.06;65.96
69731;SHT31;56996;48.138;11.538;2023-04-02T07:04:43;9.14;65.83
69731;SHT31;56996;48.138;11.538;2023-04-02T07:07:09;9.20;65.75
69731;SHT31;56996;48.138;11.538;2023-04-02T07:09:38;9.28;65.56
69731;SHT31;56996;48.138;11.538;2023-04-02T07:12:11;9.38;65.40
69731;SHT31;56996;48.138;11.538;2023-04-02T07:14:38;9.47;65.28
69731;SHT31;56996;48.138;11.538;2023-04-02T07:17:04;9.57;65.13
69731;SHT31;56996;48.138;11.538;2023-04-02T07:19:30;9.65;64.88
69731;SHT31;56996;48.138;11.538;2023-04-02T07:21:58;9.73;64.71
69731;SHT31;56996;48.138;11.538;2023-04-02T07:24:29;9.81;64.42
69731;SHT31;56996;48.138;11.538;2023-04-02T07:26:55;9.83;64.47
69731;SHT31;56996;48.138;11.538;2023-04-02T07:29:21;9.91;64.45
69731;SHT31;56996;48.138;11.538;2023-04-02T07:31:46;10.03;64.24
69731;SHT31;56996;48.138;11.538;2023-04-02T07:34:13;10.11;63.85
69731;SHT31;56996;48.138;11.538;2023-04-02T07:36:39;10.16;63.70
69731;SHT31;56996;48.138;11.538;2023-04-02T07:39:05;10.20;63.70
69731;SHT31;56996;48.138;11.538;2023-04-02T07:41:31;10.26;63.44
69731;SHT31;56996;48.138;11.538;2023-04-02T07:43:57;10.28;63.39
69731;SHT31;56996;48.138;11.538;2023-04-02T07:46:23;10.38;63.33
69731;SHT31;56996;48.138;11.538;2023-04-02T07:48:50;10.51;62.99
69731;SHT31;56996;48.138;11.538;2023-04-02T07:51:17;10.57;62.83
69731;SHT31;56996;48.138;11.538;2023-04-02T07:53:47;10.56;62.83
69731;SHT31;56996;48.138;11.538;2023-04-02T07:56:15;10.52;62.74
69731;SHT31;56996;48.138;11.538;2023-04-02T07:58:44;10.51;62.87
69731;SHT31;56996;48.138;11.538;2023-04-02T08:01:18;10.55;62.80
69731;SHT31;56996;48.138;11.538;2023-04-02T08:03:45;10.67;62.67
69731;SHT31;56996;48.138;11.538;2023-04-02T08:06:12;10.75;62.40
69731;SHT31;56996;48.138;11.538;2023-04-02T08:08:38;10.85;62.28
69731;SHT31;56996;48.138;11.538;2023-04-02T08:11:05;10.93;62.10
69731;SHT31;56996;48.138;11.538;2023-04-02T08:13:31;10.99;61.77
69731;SHT31;56996;48.138;11.538;2023-04-02T08:15:57;11.06;61.72
69731;SHT31;56996;48.138;11.538;2023-04-02T08:18:25;11.15;61.54
69731;SHT31;56996;48.138;11.538;2023-04-02T08:20:51;11.11;61.37
69731;SHT31;56996;48.138;11.538;2023-04-02T08:23:18;11.14;61.47
69731;SHT31;56996;48.138;11.538;2023-04-02T08:25:44;11.19;61.23
69731;SHT31;56996;48.138;11.538;2023-04-02T08:28:11;11.21;61.26
69731;SHT31;56996;48.138;11.538;2023-04-02T08:30:37;11.27;61.17
69731;SHT31;56996;48.138;11.538;2023-04-02T08:33:03;11.32;60.95
69731;SHT31;56996;48.138;11.538;2023-04-02T08:35:30;11.40;60.76
69731;SHT31;56996;48.138;11.538;2023-04-02T08:37:56;11.45;60.66
69731;SHT31;56996;48.138;11.538;2023-04-02T08:40:31;11.43;60.04
69731;SHT31;56996;48.138;11.538;2023-04-02T08:48:59;11.51;60.35
69731;SHT31;56996;48.138;11.538;2023-04-02T08:51:29;11.62;60.15
69731;SHT31;56996;48.138;11.538;2023-04-02T08:54:24;11.71;59.91
69731;SHT31;56996;48.138;11.538;2023-04-02T09:03:16;12.14;59.12
69731;SHT31;56996;48.138;11.538;2023-04-02T09:05:46;12.32;58.80
69731;SHT31;56996;48.138;11.538;2023-04-02T09:08:16;12.55;58.37
69731;SHT31;56996;48.138;11.538;2023-04-02T09:13:33;13.01;57.20
69731;SHT31;56996;48.138;11.538;2023-04-02T09:16:07;13.22;56.57
69731;SHT31;56996;48.138;11.538;2023-04-02T09:18:36;13.44;56.29
69731;SHT31;56996;48.138;11.538;2023-04-02T09:21:15;13.84;55.72
69731;SHT31;56996;48.138;11.538;2023-04-02T09:23:55;14.44;54.63
69731;SHT31;56996;48.138;11.538;2023-04-02T09:26:26;14.97;53.29
69731;SHT31;56996;48.138;11.538;2023-04-02T09:32:03;15.79;51.73
69731;SHT31;56996;48.138;11.538;2023-04-02T09:41:01;16.23;49.86
69731;SHT31;56996;48.138;11.538;2023-04-02T09:43:31;16.11;48.60
69731;SHT31;56996;48.138;11.538;2023-04-02T09:46:04;16.13;48.78
69731;SHT31;56996;48.138;11.538;2023-04-02T09:48:56;16.74;46.47
69731;SHT31;56996;48.138;11.538;2023-04-02T09:51:26;17.02;46.63
69731;SHT31;56996;48.138;11.538;2023-04-02T09:56:28;18.20;45.44
69731;SHT31;56996;48.138;11.538;2023-04-02T10:01:38;18.13;45.19
69731;SHT31;56996;48.138;11.538;2023-04-02T10:10:14;16.73;45.80
69731;SHT31;56996;48.138;11.538;2023-04-02T10:13:07;16.06;46.18
69731;SHT31;56996;48.138;11.538;2023-04-02T10:16:01;15.58;47.32
69731;SHT31;56996;48.138;11.538;2023-04-02T10:19:05;15.31;48.09
69731;SHT31;56996;48.138;11.538;2023-04-02T10:21:57;15.04;48.31
69731;SHT31;56996;48.138;11.538;2023-04-02T10:24:28;14.67;49.19
69731;SHT31;56996;48.138;11.538;2023-04-02T10:55:15;15.36;47.36
69731;SHT31;56996;48.138;11.538;2023-04-02T10:57:46;15.40;47.00
69731;SHT31;56996;48.138;11.538;2023-04-02T11:00:15;15.25;47.18
69731;SHT31;56996;48.138;11.538;2023-04-02T11:02:54;15.06;47.70
69731;SHT31;56996;48.138;11.538;2023-04-02T11:08:19;14.81;48.07
69731;SHT31;56996;48.138;11.538;2023-04-02T11:10:51;14.58;48.08
69731;SHT31;56996;48.138;11.538;2023-04-02T11:13:30;14.36;48.70
69731;SHT31;56996;48.138;11.538;2023-04-02T11:16:01;14.23;49.22
69731;SHT31;56996;48.138;11.538;2023-04-02T11:18:29;14.10;49.66
69731;SHT31;56996;48.138;11.538;2023-04-02T11:21:03;13.97;50.10
69731;SHT31;56996;48.138;11.538;2023-04-02T11:23:56;13.84;50.47
69731;SHT31;56996;48.138;11.538;2023-04-02T11:26:30;13.71;50.96
69731;SHT31;56996;48.138;11.538;2023-04-02T11:29:22;13.70;51.33
69731;SHT31;56996;48.138;11.538;2023-04-02T11:40:06;13.45;53.10
69731;SHT31;56996;48.138;11.538;2023-04-02T11:48:44;13.59;56.13
69731;SHT31;56996;48.138;11.538;2023-04-02T11:53:50;13.73;56.44
69731;SHT31;56996;48.138;11.538;2023-04-02T11:58:56;13.73;55.20
69731;SHT31;56996;48.138;11.538;2023-04-02T12:08:07;14.38;52.65
69731;SHT31;56996;48.138;11.538;2023-04-02T12:11:00;14.38;52.79
69731;SHT31;56996;48.138;11.538;2023-04-02T12:16:05;14.19;51.34
69731;SHT31;56996;48.138;11.538;2023-04-02T12:18:33;14.06;51.80
69731;SHT31;56996;48.138;11.538;2023-04-02T12:21:01;14.09;51.91
69731;SHT31;56996;48.138;11.538;2023-04-02T12:23:28;14.24;51.54
69731;SHT31;56996;48.138;11.538;2023-04-02T12:25:57;14.35;50.62
69731;SHT31;56996;48.138;11.538;2023-04-02T12:28:31;14.42;50.03
69731;SHT31;56996;48.138;11.538;2023-04-02T12:31:02;14.52;50.02
69731;SHT31;56996;48.138;11.538;2023-04-02T12:33:38;14.52;49.26
69731;SHT31;56996;48.138;11.538;2023-04-02T12:36:27;14.43;48.93
69731;SHT31;56996;48.138;11.538;2023-04-02T12:38:54;14.38;49.49
69731;SHT31;56996;48.138;11.538;2023-04-02T12:43:58;14.14;51.38
69731;SHT31;56996;48.138;11.538;2023-04-02T12:46:30;13.90;53.95
69731;SHT31;56996;48.138;11.538;2023-04-02T12:49:03;13.77;55.47
69731;SHT31;56996;48.138;11.538;2023-04-02T12:51:34;13.65;56.83
69731;SHT31;56996;48.138;11.538;2023-04-02T12:54:01;13.58;58.52
69731;SHT31;56996;48.138;11.538;2023-04-02T12:56:27;13.39;59.92
69731;SHT31;56996;48.138;11.538;2023-04-02T12:58:54;13.33;59.24
69731;SHT31;56996;48.138;11.538;2023-04-02T13:01:26;13.32;60.55
69731;SHT31;56996;48.138;11.538;2023-04-02T13:06:40;12.88;63.83
69731;SHT31;56996;48.138;11.538;2023-04-02T13:09:26;12.65;64.57
69731;SHT31;56996;48.138;11.538;2023-04-02T13:11:58;12.49;65.22
69731;SHT31;56996;48.138;11.538;2023-04-02T13:14:24;12.27;65.88
69731;SHT31;56996;48.138;11.538;2023-04-02T13:16:51;12.19;66.68
69731;SHT31;56996;48.138;11.538;2023-04-02T13:21:50;12.09;66.96
69731;SHT31;56996;48.138;11.538;2023-04-02T13:24:21;11.98;68.24
69731;SHT31;56996;48.138;11.538;2023-04-02T13:26:57;11.85;68.40
69731;SHT31;56996;48.138;11.538;2023-04-02T13:29:30;11.79;68.33
69731;SHT31;56996;48.138;11.538;2023-04-02T13:32:10;11.78;68.36
69731;SHT31;56996;48.138;11.538;2023-04-02T13:34:37;11.77;68.86
69731;SHT31;56996;48.138;11.538;2023-04-02T13:37:03;11.71;68.36
69731;SHT31;56996;48.138;11.538;2023-04-02T13:39:29;11.67;69.30
69731;SHT31;56996;48.138;11.538;2023-04-02T13:41:59;11.65;69.62
69731;SHT31;56996;48.138;11.538;2023-04-02T13:44:28;11.59;69.63
69731;SHT31;56996;48.138;11.538;2023-04-02T13:46:57;11.54;69.76
69731;SHT31;56996;48.138;11.538;2023-04-02T13:49:24;11.52;69.41
69731;SHT31;56996;48.138;11.538;2023-04-02T13:51:54;11.56;69.41
69731;SHT31;56996;48.138;11.538;2023-04-02T13:54:28;11.54;69.31
69731;SHT31;56996;48.138;11.538;2023-04-02T13:57:00;11.50;69.43
69731;SHT31;56996;48.138;11.538;2023-04-02T14:02:19;11.59;69.62
69731;SHT31;56996;48.138;11.538;2023-04-02T14:04:51;11.64;69.66
69731;SHT31;56996;48.138;11.538;2023-04-02T14:07:36;11.60;69.46
69731;SHT31;56996;48.138;11.538;2023-04-02T14:10:25;11.55;68.86
69731;SHT31;56996;48.138;11.538;2023-04-02T14:18:48;11.32;69.78
69731;SHT31;56996;48.138;11.538;2023-04-02T14:24:19;11.12;70.35
69731;SHT31;56996;48.138;11.538;2023-04-02T14:29:54;10.97;70.71
69731;SHT31;56996;48.138;11.538;2023-04-02T14:32:34;10.97;70.92
69731;SHT31;56996;48.138;11.538;2023-04-02T14:35:36;10.98;71.19
69731;SHT31;56996;48.138;11.538;2023-04-02T14:41:10;10.95;71.22
69731;SHT31;56996;48.138;11.538;2023-04-02T14:44:02;10.93;70.39
69731;SHT31;56996;48.138;11.538;2023-04-02T14:46:31;10.89;70.08
69731;SHT31;56996;48.138;11.538;2023-04-02T14:49:13;10.84;69.72
69731;SHT31;56996;48.138;11.538;2023-04-02T14:51:49;10.71;69.10
69731;SHT31;56996;48.138;11.538;2023-04-02T14:54:32;10.61;69.74
69731;SHT31;56996;48.138;11.538;2023-04-02T15:02:44;10.45;71.10
69731;SHT31;56996;48.138;11.538;2023-04-02T15:07:48;10.45;71.58
69731;SHT31;56996;48.138;11.538;2023-04-02T15:10:53;10.47;71.74
69731;SHT31;56996;48.138;11.538;2023-04-02T15:16:37;10.51;71.68
69731;SHT31;56996;48.138;11.538;2023-04-02T15:19:04;10.51;71.84
69731;SHT31;56996;48.138;11.538;2023-04-02T15:21:54;10.49;71.56
69731;SHT31;56996;48.138;11.538;2023-04-02T15:30:52;10.37;72.36
69731;SHT31;56996;48.138;11.538;2023-04-02T15:35:55;10.40;72.86
69731;SHT31;56996;48.138;11.538;2023-04-02T15:38:43;10.36;72.96
69731;SHT31;56996;48.138;11.538;2023-04-02T15:41:21;10.38;73.02
69731;SHT31;56996;48.138;11.538;2023-04-02T15:43:56;10.35;73.01
69731;SHT31;56996;48.138;11.538;2023-04-02T15:47:24;10.25;72.68
69731;SHT31;56996;48.138;11.538;2023-04-02T15:52:16;10.13;73.08
69731;SHT31;56996;48.138;11.538;2023-04-02T15:59:16;10.06;73.31
69731;SHT31;56996;48.138;11.538;2023-04-02T16:07:23;9.90;74.46
69731;SHT31;56996;48.138;11.538;2023-04-02T16:15:37;9.71;74.40
69731;SHT31;56996;48.138;11.538;2023-04-02T16:18:26;9.66;75.24
69731;SHT31;56996;48.138;11.538;2023-04-02T16:30:23;9.55;76.12
69731;SHT31;56996;48.138;11.538;2023-04-02T16:33:06;9.46;75.76
69731;SHT31;56996;48.138;11.538;2023-04-02T16:35:44;9.31;75.79
69731;SHT31;56996;48.138;11.538;2023-04-02T16:46:43;9.04;76.01
69731;SHT31;56996;48.138;11.538;2023-04-02T16:52:13;9.03;76.47
69731;SHT31;56996;48.138;11.538;2023-04-02T16:57:49;8.98;76.07
69731;SHT31;56996;48.138;11.538;2023-04-02T17:00:57;8.99;76.56
69731;SHT31;56996;48.138;11.538;2023-04-02T17:06:38;8.91;76.12
69731;SHT31;56996;48.138;11.538;2023-04-02T17:12:47;8.90;76.04
69731;SHT31;56996;48.138;11.538;2023-04-02T17:15:41;8.84;75.91
69731;SHT31;56996;48.138;11.538;2023-04-02T17:18:17;8.81;75.83
69731;SHT31;56996;48.138;11.538;2023-04-02T17:20:49;8.74;76.10
69731;SHT31;56996;48.138;11.538;2023-04-02T17:23:16;8.69;75.56
69731;SHT31;56996;48.138;11.538;2023-04-02T17:25:46;8.63;75.47
69731;SHT31;56996;48.138;11.538;2023-04-02T17:28:19;8.60;75.59
69731;SHT31;56996;48.138;11.538;2023-04-02T17:30:57;8.61;75.22
69731;SHT31;56996;48.138;11.538;2023-04-02T17:33:24;8.56;74.73
69731;SHT31;56996;48.138;11.538;2023-04-02T17:38:29;8.46;74.17
69731;SHT31;56996;48.138;11.538;2023-04-02T17:41:06;8.39;74.56
69731;SHT31;56996;48.138;11.538;2023-04-02T17:47:04;8.30;74.55
69731;SHT31;56996;48.138;11.538;2023-04-02T17:49:47;8.25;74.48
69731;SHT31;56996;48.138;11.538;2023-04-02T17:55:58;8.22;73.94
69731;SHT31;56996;48.138;11.538;2023-04-02T18:12:57;7.72;71.06
69731;SHT31;56996;48.138;11.538;2023-04-02T18:27:14;7.39;69.84
69731;SHT31;56996;48.138;11.538;2023-04-02T18:33:38;7.32;70.67
69731;SHT31;56996;48.138;11.538;2023-04-02T18:36:05;7.32;71.24
69731;SHT31;56996;48.138;11.538;2023-04-02T18:38:52;7.27;71.76
69731;SHT31;56996;48.138;11.538;2023-04-02T18:44:26;7.16;72.09
69731;SHT31;56996;48.138;11.538;2023-04-02T18:50:35;7.05;70.93
69731;SHT31;56996;48.138;11.538;2023-04-02T18:53:12;7.01;70.59
69731;SHT31;56996;48.138;11.538;2023-04-02T18:55:54;6.96;69.92
69731;SHT31;56996;48.138;11.538;2023-04-02T18:58:30;6.85;69.33
69731;SHT31;56996;48.138;11.538;2023-04-02T19:01:20;6.86;70.00
69731;SHT31;56996;48.138;11.538;2023-04-02T19:03:56;6.88;69.70
69731;SHT31;56996;48.138;11.538;2023-04-02T19:06:37;6.88;69.53
69731;SHT31;56996;48.138;11.538;2023-04-02T19:09:17;6.85;69.26
69731;SHT31;56996;48.138;11.538;2023-04-02T19:11:51;6.77;68.40
69731;SHT31;56996;48.138;11.538;2023-04-02T19:14:18;6.69;68.87
69731;SHT31;56996;48.138;11.538;2023-04-02T19:19:51;6.70;68.17
69731;SHT31;56996;48.138;11.538;2023-04-02T19:22:47;6.64;67.82
69731;SHT31;56996;48.138;11.538;2023-04-02T19:28:11;6.55;68.55
69731;SHT31;56996;48.138;11.538;2023-04-02T19:30:58;6.53;68.66
69731;SHT31;56996;48.138;11.538;2023-04-02T19:36:28;6.54;68.29
69731;SHT31;56996;48.138;11.538;2023-04-02T19:44:55;6.47;68.48
69731;SHT31;56996;48.138;11.538;2023-04-02T19:47:21;6.36;67.89
69731;SHT31;56996;48.138;11.538;2023-04-02T19:49:49;6.28;67.60
69731;SHT31;56996;48.138;11.538;2023-04-02T19:52:15;6.22;67.18
69731;SHT31;56996;48.138;11.538;2023-04-02T19:54:41;6.14;67.09
69731;SHT31;56996;48.138;11.538;2023-04-02T19:57:10;6.09;66.36
69731;SHT31;56996;48.138;11.538;2023-04-02T19:59:39;6.03;65.92
69731;SHT31;56996;48.138;11.538;2023-04-02T20:02:05;5.98;66.10
69731;SHT31;56996;48.138;11.538;2023-04-02T20:04:35;5.93;66.40
69731;SHT31;56996;48.138;11.538;2023-04-02T20:07:02;5.86;66.48
69731;SHT31;56996;48.138;11.538;2023-04-02T20:09:28;5.81;67.03
69731;SHT31;56996;48.138;11.538;2023-04-02T20:11:54;5.79;67.39
69731;SHT31;56996;48.138;11.538;2023-04-02T20:14:21;5.77;67.73
69731;SHT31;56996;48.138;11.538;2023-04-02T20:16:46;5.80;67.94
69731;SHT31;56996;48.138;11.538;2023-04-02T20:19:13;5.82;68.32
69731;SHT31;56996;48.138;11.538;2023-04-02T20:21:39;5.82;68.06
69731;SHT31;56996;48.138;11.538;2023-04-02T20:24:05;5.80;67.73
69731;SHT31;56996;48.138;11.538;2023-04-02T20:26:33;5.76;67.40
69731;SHT31;56996;48.138;11.538;2023-04-02T20:29:00;5.69;66.88
69731;SHT31;56996;48.138;11.538;2023-04-02T20:31:27;5.58;66.18
69731;SHT31;56996;48.138;11.538;2023-04-02T20:33:54;5.53;66.38
69731;SHT31;56996;48.138;11.538;2023-04-02T20:36:22;5.48;66.16
69731;SHT31;56996;48.138;11.538;2023-04-02T20:38:49;5.43;66.16
69731;SHT31;56996;48.138;11.538;2023-04-02T20:41:17;5.41;66.48
69731;SHT31;56996;48.138;11.538;2023-04-02T20:43:44;5.38;66.19
69731;SHT31;56996;48.138;11.538;2023-04-02T20:46:10;5.38;66.02
69731;SHT31;56996;48.138;11.538;2023-04-02T20:48:37;5.36;66.02
69731;SHT31;56996;48.138;11.538;2023-04-02T20:51:05;5.33;65.96
69731;SHT31;56996;48.138;11.538;2023-04-02T20:53:34;5.25;65.77
69731;SHT31;56996;48.138;11.538;2023-04-02T20:56:19;5.16;65.75
69731;SHT31;56996;48.138;11.538;2023-04-02T20:58:48;5.12;65.66
69731;SHT31;56996;48.138;11.538;2023-04-02T21:01:16;5.11;65.58
69731;SHT31;56996;48.138;11.538;2023-04-02T21:03:46;5.09;65.97
69731;SHT31;56996;48.138;11.538;2023-04-02T21:06:14;5.11;65.94
69731;SHT31;56996;48.138;11.538;2023-04-02T21:08:44;5.09;66.09
69731;SHT31;56996;48.138;11.538;2023-04-02T21:11:10;5.07;65.80
69731;SHT31;56996;48.138;11.538;2023-04-02T21:13:37;5.08;65.98
69731;SHT31;56996;48.138;11.538;2023-04-02T21:16:03;5.03;66.08
69731;SHT31;56996;48.138;11.538;2023-04-02T21:18:38;4.99;66.11
69731;SHT31;56996;48.138;11.538;2023-04-02T21:21:04;4.93;66.30
69731;SHT31;56996;48.138;11.538;2023-04-02T21:23:32;4.93;66.55
69731;SHT31;56996;48.138;11.538;2023-04-02T21:25:59;4.92;66.63
69731;SHT31;56996;48.138;11.538;2023-04-02T21:28:31;4.96;66.68
69731;SHT31;56996;48.138;11.538;2023-04-02T21:31:09;4.99;66.67
69731;SHT31;56996;48.138;11.538;2023-04-02T21:33:43;5.02;66.57
69731;SHT31;56996;48.138;11.538;2023-04-02T21:36:13;5.02;66.58
69731;SHT31;56996;48.138;11.538;2023-04-02T21:38:45;5.02;66.47
69731;SHT31;56996;48.138;11.538;2023-04-02T21:41:19;4.94;66.46
69731;SHT31;56996;48.138;11.538;2023-04-02T21:43:51;4.91;66.55
69731;SHT31;56996;48.138;11.538;2023-04-02T21:46:20;4.89;66.46
69731;SHT31;56996;48.138;11.538;2023-04-02T21:48:49;4.85;66.71